»·PEaware :: N117CY KHND-KSGU

N117CY :: KHND-KSGU

FLIGHT INFORMATION

Flight Status: Arrived
Operator: Privately registered:
United States
More flights under this callsign
Pilot: Utku A. (15598)
Aircraft: SOCATA TBM-900
(TBM9)
More flights by this aircraft type
Origin: KHND Henderson
United States
Destination: KSGU St George Mun
United States
More flights between these airports :: More routes between these airports
Route: LAS V394 MMM
File this flight plan on PilotEdge
Remarks:
Altitude:
(Current/Filed)
11,000ft
Speed:
(Current/Filed)
250kts
Departed: 07-Nov-18 02:06 PM
Arrived: 07-Nov-18 02:38 PM
Distance/Time
Traveled:
101nm/0:32
Distance/Time
To Go:
Arrived

Flight Plot

Page will automatically refresh every two minutes.

Flight plan parsing failed; only flown route is shown


Map Options




Map Legend


Flown Route
Filed Route
Departure Airport
Arrival Airport
Navaid (VOR, NDB)
Fix

Horizontal Profiles

Position Reports

Time Latitude Longitude Heading Altitude Ground
Speed
07-Nov-18 13:50 35.977788 -115.137935 2 2447ft 0kts
07-Nov-18 13:51 35.977788 -115.137935 2 2447ft 0kts
07-Nov-18 13:52 35.977788 -115.137935 2 2447ft 0kts
07-Nov-18 13:53 35.977789 -115.137935 2 2447ft 0kts
07-Nov-18 13:54 35.977789 -115.137935 2 2447ft 0kts
07-Nov-18 13:55 35.977789 -115.137935 2 2447ft 0kts
07-Nov-18 13:56 35.977789 -115.137935 2 2447ft 0kts
07-Nov-18 13:57 35.977789 -115.137935 2 2447ft 0kts
07-Nov-18 13:58 35.977789 -115.137935 2 2447ft 0kts
07-Nov-18 13:59 35.977789 -115.137935 2 2447ft 0kts
07-Nov-18 14:00 35.977789 -115.137935 2 2447ft 0kts
07-Nov-18 14:01 35.977310 -115.136409 168 2447ft 7kts
07-Nov-18 14:02 35.974204 -115.136428 180 2446ft 9kts
07-Nov-18 14:03 35.970606 -115.136464 180 2446ft 17kts
07-Nov-18 14:04 35.967232 -115.136505 180 2447ft 11kts
07-Nov-18 14:05 35.963863 -115.136542 178 2447ft 11kts
07-Nov-18 14:06 35.963177 -115.136448 128 2447ft 0kts
07-Nov-18 14:07 35.963124 -115.136315 107 2447ft 0kts
07-Nov-18 14:08 35.963122 -115.136308 106 2447ft 0kts
07-Nov-18 14:09 35.966343 -115.135481 2 2447ft 82kts
07-Nov-18 14:10 35.991478 -115.119948 59 4496ft 116kts
07-Nov-18 14:11 36.005519 -115.083848 61 6659ft 122kts
07-Nov-18 14:12 36.030720 -115.053086 32 8257ft 157kts
07-Nov-18 14:13 36.066397 -115.019916 31 10252ft 172kts
07-Nov-18 14:14 36.108385 -114.980710 31 10986ft 223kts
07-Nov-18 14:15 36.162399 -114.934101 31 10953ft 238kts
07-Nov-18 14:16 36.216533 -114.888001 31 10954ft 237kts
07-Nov-18 14:17 36.270896 -114.841717 31 10954ft 237kts
07-Nov-18 14:18 36.325103 -114.795375 31 10954ft 237kts
07-Nov-18 14:19 36.379411 -114.748795 31 10955ft 237kts
07-Nov-18 14:20 36.433142 -114.702685 31 10955ft 237kts
07-Nov-18 14:21 36.482262 -114.647656 43 10956ft 239kts
07-Nov-18 14:22 36.528358 -114.588434 43 10956ft 239kts
07-Nov-18 14:23 36.574717 -114.528801 43 10956ft 239kts
07-Nov-18 14:24 36.620809 -114.469437 43 10957ft 239kts
07-Nov-18 14:25 36.666999 -114.409830 43 10968ft 239kts
07-Nov-18 14:26 36.712381 -114.351122 41 10977ft 232kts
07-Nov-18 14:27 36.756615 -114.293858 42 10986ft 232kts
07-Nov-18 14:28 36.788219 -114.223514 63 11018ft 236kts
07-Nov-18 14:29 36.814772 -114.148092 63 11017ft 237kts
07-Nov-18 14:30 36.841241 -114.072627 63 11018ft 237kts
07-Nov-18 14:31 36.867613 -113.997321 63 11009ft 235kts
07-Nov-18 14:32 36.893904 -113.925279 61 10230ft 225kts
07-Nov-18 14:33 36.921407 -113.857211 60 8947ft 216kts
07-Nov-18 14:34 36.946512 -113.791699 62 7657ft 198kts
07-Nov-18 14:35 36.968699 -113.730806 68 6360ft 196kts
07-Nov-18 14:36 36.984004 -113.668807 72 5310ft 171kts
07-Nov-18 14:37 36.994285 -113.615263 83 4526ft 146kts
07-Nov-18 14:38 36.993662 -113.568431 89 4472ft 122kts
07-Nov-18 14:39 36.992222 -113.536518 43 3686ft 89kts
07-Nov-18 14:40 37.014462 -113.521921 22 3099ft 92kts
07-Nov-18 14:41 37.033476 -113.511841 23 2855ft 27kts
07-Nov-18 14:42 37.040279 -113.507995 56 2855ft 17kts
07-Nov-18 14:43 37.039390 -113.505497 201 2856ft 3kts
07-Nov-18 14:44 37.038900 -113.505269 113 2855ft 0kts
07-Nov-18 14:45 37.038900 -113.505269 113 2856ft 0kts
07-Nov-18 14:46 37.038900 -113.505269 113 2856ft 0kts
07-Nov-18 14:47 37.038900 -113.505269 113 2856ft 0kts
07-Nov-18 14:48 37.038900 -113.505269 113 2856ft 0kts
07-Nov-18 14:49 37.038900 -113.505269 113 2856ft 0kts
07-Nov-18 14:50 37.038900 -113.505269 113 2856ft 0kts
07-Nov-18 14:51 37.038900 -113.505269 113 2856ft 0kts
07-Nov-18 14:52 37.038900 -113.505269 113 2856ft 0kts
07-Nov-18 14:53 37.038900 -113.505269 113 2856ft 0kts

Navigation Log

Ident Type
Flight plan parsing failed, navigation log unavailable